HLF6MU EDDH-EDDF
Flight info
| Callsign | HLF6MU |
|---|---|
| Flight time | N/A |
| Altitude | 30000 |
| Route | AMLUH2G/33 AMLUH M852 DENIX DCT RIMET/N0466F310 T157 KOKEB/N0449F230 T157 KERAX KERAX5A |
| Aircraft | A306/H-SDE3FGHIRWY/LB1 |
Departure
| Time | 2026-04-25 18:33 |
|---|---|
| Airport | Hamburg Helmut Schmidt Airport (EDDH) |
Arrival
| Time | N/A |
|---|---|
| Airport | Frankfurt Main Airport (EDDF) |
| Time | Latitude | Longitude | Altitude | Speed | Heading |
|---|---|---|---|---|---|
| 2026-04-25 18:05 | 53.62888 | 10.00224 | 54 ft | 0 kts | 124° |
| 2026-04-25 18:21 | 53.62893 | 10.00211 | 48 ft | 4 kts | 127° |
| 2026-04-25 18:22 | 53.62911 | 10.00179 | 50 ft | 4 kts | 144° |
| 2026-04-25 18:22 | 53.62925 | 10.00162 | 48 ft | 4 kts | 155° |
| 2026-04-25 18:22 | 53.62959 | 10.00145 | 54 ft | 4 kts | 176° |
| 2026-04-25 18:22 | 53.62986 | 10.00146 | 52 ft | 4 kts | 191° |
| 2026-04-25 18:23 | 53.63011 | 10.00159 | 48 ft | 3 kts | 209° |
| 2026-04-25 18:23 | 53.63015 | 10.00163 | 47 ft | 0 kts | 211° |
| 2026-04-25 18:26 | 53.63009 | 10.00157 | 48 ft | 6 kts | 211° |
| 2026-04-25 18:26 | 53.62950 | 10.00096 | 48 ft | 11 kts | 211° |
| 2026-04-25 18:27 | 53.62884 | 10.00043 | 49 ft | 10 kts | 214° |
| 2026-04-25 18:27 | 53.62843 | 9.99952 | 52 ft | 10 kts | 242° |
| 2026-04-25 18:27 | 53.62812 | 9.99847 | 50 ft | 8 kts | 248° |
| 2026-04-25 18:27 | 53.62829 | 9.99781 | 49 ft | 6 kts | 326° |
| 2026-04-25 18:28 | 53.62841 | 9.99769 | 51 ft | 0 kts | 331° |
| 2026-04-25 18:31 | 53.62866 | 9.99747 | 47 ft | 24 kts | 332° |
| 2026-04-25 18:31 | 53.63252 | 9.99411 | 49 ft | 98 kts | 333° |
| 2026-04-25 18:32 | 53.64059 | 9.98716 | 85 ft | 158 kts | 329° |
| 2026-04-25 18:32 | 53.65081 | 9.97892 | 407 ft | 170 kts | 330° |
| 2026-04-25 18:32 | 53.66152 | 9.96988 | 469 ft | 172 kts | 329° |
| 2026-04-25 18:32 | 53.67220 | 9.96036 | 451 ft | 174 kts | 325° |
| 2026-04-25 18:33 | 53.68210 | 9.94802 | 744 ft | 182 kts | 320° |
| 2026-04-25 18:33 | 53.69212 | 9.93476 | 1510 ft | 184 kts | 319° |
| 2026-04-25 18:33 | 53.70222 | 9.92025 | 2350 ft | 198 kts | 318° |
| 2026-04-25 18:33 | 53.71303 | 9.90478 | 3303 ft | 207 kts | 320° |
| 2026-04-25 18:34 | 53.72454 | 9.88880 | 4054 ft | 221 kts | 321° |
| 2026-04-25 18:34 | 53.73656 | 9.87364 | 5106 ft | 203 kts | 330° |
| 2026-04-25 18:34 | 53.74962 | 9.86231 | 5175 ft | 223 kts | 329° |
| 2026-04-25 18:34 | 53.76208 | 9.84624 | 4809 ft | 227 kts | 317° |
| 2026-04-25 18:35 | 53.77314 | 9.82721 | 4814 ft | 227 kts | 315° |
| 2026-04-25 18:35 | 53.78410 | 9.80783 | 4990 ft | 228 kts | 315° |
| 2026-04-25 18:35 | 53.79499 | 9.78853 | 4995 ft | 226 kts | 315° |
| 2026-04-25 18:35 | 53.80571 | 9.76951 | 4996 ft | 226 kts | 315° |
| 2026-04-25 18:36 | 53.81657 | 9.75019 | 4997 ft | 226 kts | 315° |
| 2026-04-25 18:36 | 53.82740 | 9.73090 | 4997 ft | 226 kts | 315° |
| 2026-04-25 18:36 | 53.83827 | 9.71153 | 4998 ft | 226 kts | 315° |
| 2026-04-25 18:36 | 53.84911 | 9.69219 | 4998 ft | 227 kts | 315° |
| 2026-04-25 18:37 | 53.85997 | 9.67279 | 4993 ft | 227 kts | 315° |
| 2026-04-25 18:37 | 53.87083 | 9.65338 | 4996 ft | 227 kts | 314° |
| 2026-04-25 18:37 | 53.87939 | 9.63088 | 4992 ft | 233 kts | 292° |
| 2026-04-25 18:37 | 53.88001 | 9.60301 | 4992 ft | 247 kts | 264° |
| 2026-04-25 18:38 | 53.87186 | 9.57692 | 5001 ft | 266 kts | 236° |
| 2026-04-25 18:38 | 53.85623 | 9.55879 | 4996 ft | 283 kts | 207° |
| 2026-04-25 18:38 | 53.83643 | 9.55294 | 5008 ft | 294 kts | 187° |